Time;durP1;ratioP1;P1;durP2;ratioP2;P2;SDS_P1;SDS_P2;PMS_P1;PMS_P2;Temp;Humidity;BMP_temperature;BMP_pressure;BME280_temperature;BME280_humidity;BME280_pressure;Samples;Min_cycle;Max_cycle;Signal;HPM_P1;HPM_P2
2023/12/05 00:02:17;;;;;;;38.30;35.85;;;;;;;;;;5053847;28;20235;-79
2023/12/05 00:04:44;;;;;;;35.78;33.67;;;;;;;;;;5060623;28;20199;-78
2023/12/05 00:07:11;;;;;;;36.03;33.75;;;;;;;;;;5073910;28;20277;-78
2023/12/05 00:09:38;;;;;;;38.13;35.50;;;;;;;;;;5074499;28;20243;-80
2023/12/05 00:12:06;;;;;;;33.47;31.45;;;;;;;;;;5074477;28;20231;-79
2023/12/05 00:14:33;;;;;;;36.67;34.28;;;;;;;;;;5073374;28;20268;-78
2023/12/05 00:32:19;;;;;;;36.35;33.97;;;;;;;;;;5051446;28;20708;-78
2023/12/05 00:34:46;;;;;;;38.35;35.42;;;;;;;;;;5059398;28;20675;-79
2023/12/05 00:37:13;;;;;;;37.67;35.10;;;;;;;;;;5072297;28;20223;-80
2023/12/05 00:39:40;;;;;;;37.70;35.10;;;;;;;;;;5062681;28;20681;-78
2023/12/05 00:42:07;;;;;;;36.55;33.75;;;;;;;;;;5053466;28;20235;-78
2023/12/05 00:44:34;;;;;;;33.40;31.40;;;;;;;;;;5052940;28;20614;-79
2023/12/05 00:47:04;;;;;;;35.35;33.05;;;;;;;;;;5053123;28;20231;-78
2023/12/05 00:49:34;;;;;;;37.22;34.65;;;;;;;;;;5053232;28;20185;-78
2023/12/05 00:52:01;;;;;;;37.05;34.40;;;;;;;;;;5053025;28;20208;-77
2023/12/05 00:54:28;;;;;;;36.42;33.63;;;;;;;;;;5052634;28;20239;-78
2023/12/05 00:56:55;;;;;;;37.83;35.33;;;;;;;;;;5052912;28;20370;-79
2023/12/05 00:59:23;;;;;;;31.15;29.30;;;;;;;;;;5052663;28;20652;-78
2023/12/05 01:01:49;;;;;;;37.03;34.50;;;;;;;;;;5052549;28;20681;-79
2023/12/05 01:04:17;;;;;;;39.03;36.38;;;;;;;;;;5052377;28;20265;-79
2023/12/05 01:06:45;;;;;;;36.03;33.53;;;;;;;;;;5052708;28;20271;-79
2023/12/05 01:09:13;;;;;;;36.10;33.35;;;;;;;;;;5052101;28;20949;-78
2023/12/05 01:11:40;;;;;;;38.42;35.80;;;;;;;;;;5052389;28;20208;-78
2023/12/05 01:14:07;;;;;;;38.00;35.40;;;;;;;;;;5051926;28;20688;-78
2023/12/05 01:16:34;;;;;;;37.42;34.78;;;;;;;;;;5051665;28;20224;-78
2023/12/05 01:19:01;;;;;;;35.90;33.30;;;;;;;;;;5063715;28;20196;-78
2023/12/05 01:21:28;;;;;;;35.83;33.17;;;;;;;;;;5066113;28;20210;-78
2023/12/05 01:23:57;;;;;;;34.72;32.15;;;;;;;;;;5057182;28;20653;-78
2023/12/05 01:26:24;;;;;;;33.70;31.40;;;;;;;;;;5070519;28;20215;-77
2023/12/05 01:28:51;;;;;;;36.22;33.70;;;;;;;;;;5077139;28;20211;-80
2023/12/05 01:31:19;;;;;;;35.38;32.78;;;;;;;;;;5057945;28;20222;-78
2023/12/05 01:33:46;;;;;;;31.38;29.42;;;;;;;;;;5051999;28;20211;-79
2023/12/05 01:36:13;;;;;;;33.00;30.42;;;;;;;;;;5051788;28;20293;-79
2023/12/05 01:38:40;;;;;;;35.33;32.92;;;;;;;;;;5052138;28;20204;-79
2023/12/05 01:41:09;;;;;;;34.45;32.05;;;;;;;;;;5052221;28;20208;-78
2023/12/05 01:43:36;;;;;;;31.17;29.13;;;;;;;;;;5052124;28;20212;-78
2023/12/05 01:46:04;;;;;;;33.42;31.23;;;;;;;;;;5051198;28;20591;-78
2023/12/05 01:48:32;;;;;;;34.17;31.67;;;;;;;;;;5051382;28;20242;-77
2023/12/05 01:51:00;;;;;;;30.73;28.73;;;;;;;;;;5053617;28;20208;-78
2023/12/05 01:53:27;;;;;;;31.95;29.85;;;;;;;;;;5054180;28;20212;-78
2023/12/05 01:55:55;;;;;;;33.63;31.02;;;;;;;;;;5054012;28;20250;-78
2023/12/05 01:58:23;;;;;;;32.15;29.95;;;;;;;;;;5071627;28;20223;-79
2023/12/05 02:00:50;;;;;;;28.77;27.00;;;;;;;;;;5075101;28;20276;-78
2023/12/05 02:03:17;;;;;;;29.90;28.00;;;;;;;;;;5072634;28;20211;-79
2023/12/05 02:05:45;;;;;;;31.73;29.38;;;;;;;;;;5070999;28;20560;-78
2023/12/05 02:08:12;;;;;;;30.75;28.63;;;;;;;;;;5066671;28;20246;-78
2023/12/05 02:10:39;;;;;;;33.50;31.20;;;;;;;;;;5062421;28;20215;-78
2023/12/05 02:13:06;;;;;;;30.02;28.02;;;;;;;;;;5052498;28;20211;-78
2023/12/05 02:15:34;;;;;;;31.20;29.02;;;;;;;;;;5051136;28;20250;-78
2023/12/05 02:18:05;;;;;;;32.05;29.88;;;;;;;;;;5051682;28;20631;-79
2023/12/05 02:20:35;;;;;;;33.13;30.65;;;;;;;;;;5052771;28;20241;-79
2023/12/05 02:23:14;;;;;;;32.00;29.80;;;;;;;;;;5052585;28;20257;-78
2023/12/05 02:25:48;;;;;;;32.70;30.52;;;;;;;;;;5051998;28;20188;-79
2023/12/05 02:28:17;;;;;;;31.55;29.35;;;;;;;;;;5053303;28;20237;-79
2023/12/05 02:30:44;;;;;;;29.75;27.70;;;;;;;;;;5058921;28;20211;-81
2023/12/05 02:33:11;;;;;;;29.33;27.23;;;;;;;;;;5058229;28;20347;-78
2023/12/05 02:35:38;;;;;;;34.58;32.10;;;;;;;;;;5057262;28;20229;-78
2023/12/05 02:38:11;;;;;;;27.77;26.17;;;;;;;;;;5057865;28;20220;-79
2023/12/05 02:40:40;;;;;;;30.27;28.30;;;;;;;;;;5057568;28;20275;-78
2023/12/05 02:43:11;;;;;;;31.15;28.92;;;;;;;;;;5057838;28;20249;-79
2023/12/05 02:45:40;;;;;;;30.65;28.67;;;;;;;;;;5056913;28;20640;-79
2023/12/05 02:48:11;;;;;;;28.40;26.27;;;;;;;;;;5057911;28;20285;-78
2023/12/05 02:50:38;;;;;;;28.08;26.27;;;;;;;;;;5057688;28;20215;-79
2023/12/05 02:53:05;;;;;;;30.38;28.17;;;;;;;;;;5057367;28;20680;-79
2023/12/05 02:55:32;;;;;;;25.75;24.15;;;;;;;;;;5057134;28;20705;-78
2023/12/05 02:57:59;;;;;;;29.27;27.38;;;;;;;;;;5057654;28;20232;-78
2023/12/05 03:00:26;;;;;;;30.95;28.55;;;;;;;;;;5057941;28;20309;-78
2023/12/05 03:02:54;;;;;;;33.15;30.83;;;;;;;;;;5057301;28;20261;-78
2023/12/05 03:05:21;;;;;;;26.45;24.65;;;;;;;;;;5057066;28;20246;-77
2023/12/05 03:07:48;;;;;;;34.40;32.10;;;;;;;;;;5057252;28;20297;-78
2023/12/05 03:10:15;;;;;;;32.53;30.15;;;;;;;;;;5057639;28;20242;-77
2023/12/05 03:12:42;;;;;;;31.60;29.27;;;;;;;;;;5057626;28;20250;-75
2023/12/05 03:15:10;;;;;;;31.20;29.20;;;;;;;;;;5056918;28;20656;-79
2023/12/05 03:17:38;;;;;;;34.17;31.65;;;;;;;;;;5057663;28;20224;-78
2023/12/05 03:32:21;;;;;;;27.20;25.73;;;;;;;;;;5055124;28;20238;-75
2023/12/05 03:34:48;;;;;;;34.13;31.90;;;;;;;;;;5060890;28;20211;-75
2023/12/05 03:37:15;;;;;;;32.10;30.10;;;;;;;;;;5057229;28;20228;-76
2023/12/05 03:39:42;;;;;;;32.90;30.60;;;;;;;;;;5056118;28;20219;-77
2023/12/05 03:42:09;;;;;;;33.65;31.45;;;;;;;;;;5053186;28;20266;-75
2023/12/05 03:44:36;;;;;;;32.13;29.73;;;;;;;;;;5053346;28;20254;-76
2023/12/05 03:47:03;;;;;;;30.83;28.77;;;;;;;;;;5053595;28;20232;-75
2023/12/05 03:49:31;;;;;;;30.70;28.80;;;;;;;;;;5053329;28;20656;-76
2023/12/05 03:52:01;;;;;;;32.97;30.58;;;;;;;;;;5053604;28;20204;-75
2023/12/05 03:54:28;;;;;;;31.42;29.08;;;;;;;;;;5053503;28;20266;-76
2023/12/05 03:56:55;;;;;;;33.17;30.77;;;;;;;;;;5053451;28;20228;-76
2023/12/05 03:59:22;;;;;;;33.75;31.40;;;;;;;;;;5053413;28;20208;-76
2023/12/05 04:01:48;;;;;;;32.35;30.00;;;;;;;;;;5053134;28;20658;-76
2023/12/05 04:04:15;;;;;;;31.80;29.80;;;;;;;;;;5052465;28;20677;-76
2023/12/05 04:06:44;;;;;;;30.73;28.67;;;;;;;;;;5053008;28;20258;-75
2023/12/05 04:09:11;;;;;;;31.13;29.13;;;;;;;;;;5053553;28;20286;-76
2023/12/05 04:11:38;;;;;;;32.20;30.00;;;;;;;;;;5053012;28;20208;-77
2023/12/05 04:14:05;;;;;;;32.15;30.05;;;;;;;;;;5053121;28;20262;-76
2023/12/05 04:16:32;;;;;;;33.85;31.33;;;;;;;;;;5053545;28;20228;-75
2023/12/05 04:18:59;;;;;;;27.45;25.80;;;;;;;;;;5053720;28;20250;-78
2023/12/05 04:21:26;;;;;;;31.45;29.35;;;;;;;;;;5052711;28;20211;-77
2023/12/05 04:23:55;;;;;;;28.90;27.00;;;;;;;;;;5052681;28;20235;-77
2023/12/05 04:26:22;;;;;;;28.98;27.10;;;;;;;;;;5052889;28;20270;-77
2023/12/05 04:28:49;;;;;;;29.90;27.80;;;;;;;;;;5053076;28;20631;-75
2023/12/05 04:31:16;;;;;;;30.45;28.38;;;;;;;;;;5053306;28;20285;-76
2023/12/05 04:33:43;;;;;;;29.90;28.02;;;;;;;;;;5053043;28;20214;-76
2023/12/05 04:36:11;;;;;;;30.50;28.50;;;;;;;;;;5052778;28;20256;-77
2023/12/05 04:38:39;;;;;;;31.63;28.95;;;;;;;;;;5053467;28;20200;-76
2023/12/05 04:41:07;;;;;;;29.63;27.65;;;;;;;;;;5053539;28;20212;-76
2023/12/05 04:43:34;;;;;;;31.33;29.13;;;;;;;;;;5052709;28;20660;-75
2023/12/05 04:46:01;;;;;;;29.40;27.48;;;;;;;;;;5051886;28;20886;-77
2023/12/05 04:48:28;;;;;;;26.45;24.92;;;;;;;;;;5052706;28;20228;-76
2023/12/05 04:50:55;;;;;;;29.95;27.90;;;;;;;;;;5052778;28;20200;-77
2023/12/05 04:53:22;;;;;;;28.65;26.65;;;;;;;;;;5052256;28;20733;-77
2023/12/05 04:55:50;;;;;;;28.75;26.75;;;;;;;;;;5051926;28;20668;-76
2023/12/05 04:58:18;;;;;;;30.10;28.10;;;;;;;;;;5052655;28;20235;-76
2023/12/05 05:00:45;;;;;;;28.33;26.42;;;;;;;;;;5052901;28;20302;-78
2023/12/05 05:03:13;;;;;;;28.33;26.42;;;;;;;;;;5052958;28;20262;-76
2023/12/05 05:05:40;;;;;;;29.42;27.52;;;;;;;;;;5051521;28;20204;-76
2023/12/05 05:08:07;;;;;;;28.45;26.50;;;;;;;;;;5052301;28;20232;-77
2023/12/05 05:10:34;;;;;;;27.85;25.95;;;;;;;;;;5052403;28;20200;-76
2023/12/05 05:13:01;;;;;;;29.25;27.25;;;;;;;;;;5052442;28;20207;-77
2023/12/05 05:15:29;;;;;;;28.40;26.40;;;;;;;;;;5051873;28;20242;-76
2023/12/05 05:17:56;;;;;;;28.63;26.50;;;;;;;;;;5061246;28;20219;-77
2023/12/05 05:20:23;;;;;;;28.13;26.33;;;;;;;;;;5065044;28;20219;-77
2023/12/05 05:22:50;;;;;;;25.95;24.25;;;;;;;;;;5052217;28;20242;-76
2023/12/05 05:25:18;;;;;;;29.80;27.73;;;;;;;;;;5051167;28;20330;-78
2023/12/05 05:27:45;;;;;;;27.33;25.52;;;;;;;;;;5051735;28;20224;-78
2023/12/05 05:30:13;;;;;;;27.90;26.00;;;;;;;;;;5051597;28;20216;-78
2023/12/05 05:32:41;;;;;;;28.25;26.38;;;;;;;;;;5051213;28;20242;-78
2023/12/05 05:35:08;;;;;;;27.80;26.02;;;;;;;;;;5051233;28;20216;-77
2023/12/05 05:37:36;;;;;;;28.83;26.92;;;;;;;;;;5051003;28;20216;-78
2023/12/05 05:40:03;;;;;;;28.60;26.80;;;;;;;;;;5051422;28;20208;-77
2023/12/05 05:42:30;;;;;;;27.95;26.15;;;;;;;;;;5050781;28;20723;-77
2023/12/05 05:44:57;;;;;;;27.85;25.88;;;;;;;;;;5051161;28;20997;-77
2023/12/05 05:47:24;;;;;;;27.98;26.20;;;;;;;;;;5051269;28;20700;-78
2023/12/05 05:49:52;;;;;;;28.45;26.65;;;;;;;;;;5051416;28;20773;-76
2023/12/05 05:52:19;;;;;;;29.45;27.35;;;;;;;;;;5051403;28;20657;-76
2023/12/05 05:54:46;;;;;;;29.05;27.15;;;;;;;;;;5071493;28;20610;-77
2023/12/05 05:57:13;;;;;;;29.08;27.13;;;;;;;;;;5071643;28;20227;-77
2023/12/05 05:59:43;;;;;;;28.80;26.90;;;;;;;;;;5071625;28;20203;-77
2023/12/05 06:18:02;;;;;;;29.40;27.40;;;;;;;;;;5050142;28;20203;-77
2023/12/05 06:20:29;;;;;;;26.13;24.45;;;;;;;;;;5050388;28;20228;-79
2023/12/05 06:22:59;;;;;;;29.02;27.23;;;;;;;;;;5051135;28;20231;-77
2023/12/05 06:25:26;;;;;;;30.83;28.80;;;;;;;;;;5048592;28;20222;-76
2023/12/05 06:27:53;;;;;;;31.15;28.85;;;;;;;;;;5051098;28;20280;-76
2023/12/05 06:30:20;;;;;;;30.60;28.52;;;;;;;;;;5070602;28;20219;-77
2023/12/05 06:32:47;;;;;;;30.30;28.30;;;;;;;;;;5070971;28;20208;-77
2023/12/05 06:35:15;;;;;;;32.15;29.95;;;;;;;;;;5070387;28;20215;-77
2023/12/05 06:37:43;;;;;;;33.13;30.63;;;;;;;;;;5070560;28;20284;-77
2023/12/05 06:40:13;;;;;;;33.25;30.95;;;;;;;;;;5071118;28;20204;-77
2023/12/05 06:42:41;;;;;;;33.13;30.90;;;;;;;;;;5070889;28;20190;-76
2023/12/05 06:45:08;;;;;;;32.78;30.67;;;;;;;;;;5070330;28;20346;-77
2023/12/05 06:47:35;;;;;;;33.17;30.92;;;;;;;;;;5070791;28;20277;-76
2023/12/05 06:50:05;;;;;;;31.83;29.83;;;;;;;;;;5050546;28;20232;-77
2023/12/05 06:52:33;;;;;;;32.38;30.38;;;;;;;;;;5050813;28;20219;-76
2023/12/05 06:55:00;;;;;;;33.85;31.65;;;;;;;;;;5050486;28;20262;-77
2023/12/05 06:57:27;;;;;;;32.53;30.33;;;;;;;;;;5050594;28;20268;-76
2023/12/05 06:59:54;;;;;;;35.30;32.72;;;;;;;;;;5050627;28;20250;-78
2023/12/05 07:02:21;;;;;;;34.95;32.05;;;;;;;;;;5050403;28;20208;-78
2023/12/05 07:04:48;;;;;;;33.15;30.98;;;;;;;;;;5049498;28;20204;-77
2023/12/05 07:07:16;;;;;;;33.33;30.90;;;;;;;;;;5050491;28;20236;-76
2023/12/05 07:09:44;;;;;;;34.33;31.80;;;;;;;;;;5050814;28;20335;-78
2023/12/05 07:12:11;;;;;;;34.10;31.85;;;;;;;;;;5051092;28;20234;-77
2023/12/05 07:14:38;;;;;;;34.92;32.47;;;;;;;;;;5049433;28;20350;-76
2023/12/05 07:17:05;;;;;;;34.28;31.73;;;;;;;;;;5054181;28;20228;-77
2023/12/05 07:19:32;;;;;;;33.20;31.00;;;;;;;;;;5053351;28;20254;-77
2023/12/05 07:21:59;;;;;;;33.05;30.88;;;;;;;;;;5054050;28;20209;-76
2023/12/05 07:24:26;;;;;;;33.65;31.45;;;;;;;;;;5053435;28;20247;-76
2023/12/05 07:26:55;;;;;;;33.63;31.38;;;;;;;;;;5053806;28;20699;-75
2023/12/05 07:29:22;;;;;;;36.03;33.47;;;;;;;;;;5054412;28;20224;-77
2023/12/05 07:31:49;;;;;;;32.83;30.58;;;;;;;;;;5053630;28;20209;-78
2023/12/05 07:34:16;;;;;;;35.03;32.42;;;;;;;;;;5053096;28;20231;-78
2023/12/05 07:36:43;;;;;;;34.72;32.22;;;;;;;;;;5059146;28;20727;-77
2023/12/05 07:39:12;;;;;;;32.78;30.52;;;;;;;;;;5074508;28;20253;-76
2023/12/05 07:41:40;;;;;;;35.60;33.05;;;;;;;;;;5060495;28;20567;-77
2023/12/05 07:44:08;;;;;;;34.05;31.48;;;;;;;;;;5053281;28;20649;-77
2023/12/05 07:46:35;;;;;;;32.50;30.35;;;;;;;;;;5053956;28;20224;-76
2023/12/05 07:49:03;;;;;;;33.65;31.25;;;;;;;;;;5053932;28;20228;-77
2023/12/05 07:51:30;;;;;;;33.75;31.45;;;;;;;;;;5054052;28;20207;-77
2023/12/05 07:53:57;;;;;;;34.28;31.77;;;;;;;;;;5053401;28;20212;-76
2023/12/05 07:56:24;;;;;;;36.60;33.95;;;;;;;;;;5053448;28;20212;-78
2023/12/05 07:58:51;;;;;;;34.28;32.00;;;;;;;;;;5053833;28;20258;-77
2023/12/05 08:01:19;;;;;;;33.80;31.30;;;;;;;;;;5053131;28;20208;-77
2023/12/05 08:03:46;;;;;;;35.55;33.15;;;;;;;;;;5052962;28;20742;-78
2023/12/05 08:06:13;;;;;;;33.72;31.27;;;;;;;;;;5052469;28;20615;-77
2023/12/05 08:08:40;;;;;;;32.97;30.58;;;;;;;;;;5053232;28;20591;-78
2023/12/05 08:11:09;;;;;;;35.00;32.22;;;;;;;;;;5054291;28;20254;-78
2023/12/05 08:13:37;;;;;;;31.25;29.15;;;;;;;;;;5053299;28;20889;-75
2023/12/05 08:16:04;;;;;;;32.50;30.27;;;;;;;;;;5053160;28;20208;-75
2023/12/05 08:18:33;;;;;;;34.47;31.88;;;;;;;;;;5053831;28;20604;-76
2023/12/05 08:21:00;;;;;;;33.47;31.08;;;;;;;;;;5053177;28;20729;-75
2023/12/05 08:23:27;;;;;;;30.27;28.17;;;;;;;;;;5071527;28;20289;-80
2023/12/05 08:25:54;;;;;;;33.58;31.25;;;;;;;;;;5072917;28;20294;-76
2023/12/05 08:28:22;;;;;;;30.70;28.67;;;;;;;;;;5073107;28;20705;-75
2023/12/05 08:30:49;;;;;;;31.33;29.10;;;;;;;;;;5073440;28;20200;-75
2023/12/05 08:33:16;;;;;;;31.55;29.42;;;;;;;;;;5072990;28;20938;-76
2023/12/05 08:35:45;;;;;;;31.13;29.05;;;;;;;;;;5072294;28;20737;-76
2023/12/05 08:38:12;;;;;;;31.95;29.65;;;;;;;;;;5072841;28;20652;-76
2023/12/05 08:40:39;;;;;;;34.15;31.85;;;;;;;;;;5072738;28;20602;-75
2023/12/05 08:43:06;;;;;;;32.83;30.63;;;;;;;;;;5069097;28;20200;-75
2023/12/05 08:45:33;;;;;;;32.65;30.35;;;;;;;;;;5052456;28;20254;-77
2023/12/05 08:48:00;;;;;;;32.03;29.83;;;;;;;;;;5052884;28;20856;-76
2023/12/05 08:50:27;;;;;;;32.30;30.00;;;;;;;;;;5052562;28;20240;-75
2023/12/05 08:52:56;;;;;;;31.23;29.13;;;;;;;;;;5052859;28;20204;-76
2023/12/05 08:55:23;;;;;;;33.13;30.77;;;;;;;;;;5052389;28;20220;-77
2023/12/05 08:57:50;;;;;;;31.35;29.13;;;;;;;;;;5052714;28;20275;-77
2023/12/05 09:00:17;;;;;;;31.30;29.23;;;;;;;;;;5064239;28;20237;-76
2023/12/05 09:02:44;;;;;;;31.75;29.73;;;;;;;;;;5071930;28;20203;-76
2023/12/05 09:05:11;;;;;;;31.02;28.83;;;;;;;;;;5062377;28;20212;-76
2023/12/05 09:07:39;;;;;;;31.90;29.58;;;;;;;;;;5053828;28;20224;-80
2023/12/05 09:10:08;;;;;;;31.10;28.90;;;;;;;;;;5060649;28;20219;-77
2023/12/05 09:12:35;;;;;;;30.13;28.05;;;;;;;;;;5071864;28;20253;-76
2023/12/05 09:15:02;;;;;;;31.33;29.15;;;;;;;;;;5071259;28;20211;-76
2023/12/05 09:17:29;;;;;;;35.80;32.97;;;;;;;;;;5071806;28;20703;-76
2023/12/05 09:19:56;;;;;;;32.72;30.60;;;;;;;;;;5072407;28;20204;-75
2023/12/05 09:22:23;;;;;;;33.53;31.08;;;;;;;;;;5071911;28;20245;-76
2023/12/05 09:24:51;;;;;;;46.72;42.42;;;;;;;;;;5071786;28;20295;-77
2023/12/05 09:27:19;;;;;;;50.45;45.53;;;;;;;;;;5059786;28;20220;-77
2023/12/05 09:29:46;;;;;;;33.33;30.95;;;;;;;;;;5052544;28;20285;-78
2023/12/05 09:32:13;;;;;;;34.15;31.65;;;;;;;;;;5051800;28;20211;-76
2023/12/05 09:34:41;;;;;;;35.40;32.90;;;;;;;;;;5050821;28;20242;-76
2023/12/05 09:37:07;;;;;;;32.72;30.63;;;;;;;;;;5051905;28;20228;-77
2023/12/05 09:39:34;;;;;;;34.30;31.70;;;;;;;;;;5051755;28;20212;-78
2023/12/05 09:42:03;;;;;;;33.47;31.25;;;;;;;;;;5061410;28;20209;-76
2023/12/05 09:44:33;;;;;;;33.42;31.00;;;;;;;;;;5051687;28;20212;-77
2023/12/05 09:47:04;;;;;;;36.45;33.72;;;;;;;;;;5052147;28;20238;-77
2023/12/05 09:49:31;;;;;;;36.75;34.15;;;;;;;;;;5051599;28;20216;-77
2023/12/05 09:51:58;;;;;;;34.92;32.38;;;;;;;;;;5053230;28;20208;-77
2023/12/05 09:54:26;;;;;;;31.50;29.40;;;;;;;;;;5052121;28;20212;-79
2023/12/05 09:56:55;;;;;;;32.65;30.38;;;;;;;;;;5053292;28;20235;-79
2023/12/05 09:59:22;;;;;;;32.25;30.05;;;;;;;;;;5054015;28;20200;-80
2023/12/05 10:01:51;;;;;;;30.70;28.50;;;;;;;;;;5053491;28;20537;-78
2023/12/05 10:04:19;;;;;;;30.85;28.80;;;;;;;;;;5052747;28;20234;-79
2023/12/05 10:06:46;;;;;;;32.60;30.40;;;;;;;;;;5059928;28;20258;-77
2023/12/05 10:09:15;;;;;;;32.33;30.23;;;;;;;;;;5073821;28;20208;-78
2023/12/05 10:11:43;;;;;;;32.85;30.52;;;;;;;;;;5075680;28;20206;-81
2023/12/05 10:14:09;;;;;;;32.97;30.63;;;;;;;;;;5075219;28;20287;-82
2023/12/05 10:16:37;;;;;;;29.80;28.00;;;;;;;;;;5073895;28;20293;-82
2023/12/05 10:19:05;;;;;;;30.48;28.48;;;;;;;;;;5076258;28;20257;-85
2023/12/05 10:21:32;;;;;;;32.97;30.77;;;;;;;;;;5077529;28;20206;-83
2023/12/05 10:24:00;;;;;;;30.48;28.48;;;;;;;;;;5076699;28;20636;-82
2023/12/05 10:26:28;;;;;;;31.95;29.60;;;;;;;;;;5077132;28;20255;-83
2023/12/05 10:28:57;;;;;;;27.73;26.00;;;;;;;;;;5076598;28;20931;-81
2023/12/05 10:31:24;;;;;;;29.38;27.38;;;;;;;;;;5076819;28;20223;-82
2023/12/05 10:33:51;;;;;;;29.42;27.33;;;;;;;;;;5075627;28;20199;-81
2023/12/05 10:36:19;;;;;;;29.33;27.33;;;;;;;;;;5072421;28;20230;-82
2023/12/05 10:38:47;;;;;;;27.23;25.50;;;;;;;;;;5070841;28;20261;-76
2023/12/05 10:41:22;;;;;;;27.27;24.98;;;;;;;;;;5070835;28;20676;-76
2023/12/05 10:43:51;;;;;;;26.27;24.67;;;;;;;;;;5069873;28;20187;-80
2023/12/05 10:46:18;;;;;;;28.13;26.33;;;;;;;;;;5070296;28;20873;-75
2023/12/05 10:48:45;;;;;;;27.33;25.55;;;;;;;;;;5070112;28;20445;-76
2023/12/05 10:51:12;;;;;;;26.13;24.50;;;;;;;;;;5073565;28;20284;-75
2023/12/05 10:53:41;;;;;;;24.65;23.15;;;;;;;;;;5073772;28;20214;-76
2023/12/05 10:56:11;;;;;;;27.23;25.45;;;;;;;;;;5073309;28;20593;-76
2023/12/05 10:58:40;;;;;;;27.42;25.52;;;;;;;;;;5074018;28;20207;-74
2023/12/05 11:01:08;;;;;;;28.63;26.52;;;;;;;;;;5073927;28;20328;-75
2023/12/05 11:03:36;;;;;;;25.30;23.70;;;;;;;;;;5067825;28;20707;-76
2023/12/05 11:06:03;;;;;;;24.70;23.10;;;;;;;;;;5053907;28;20480;-75
2023/12/05 11:08:30;;;;;;;25.20;23.60;;;;;;;;;;5054560;28;20228;-78
2023/12/05 11:11:00;;;;;;;23.45;22.05;;;;;;;;;;5054780;28;20247;-74
2023/12/05 11:13:27;;;;;;;25.95;24.15;;;;;;;;;;5060574;28;20224;-82
2023/12/05 11:15:55;;;;;;;24.40;22.63;;;;;;;;;;5061377;28;20200;-82
2023/12/05 11:18:27;;;;;;;24.65;23.05;;;;;;;;;;5059921;28;20232;-82
2023/12/05 11:20:59;;;;;;;25.63;24.13;;;;;;;;;;5060454;28;20253;-77
2023/12/05 11:23:43;;;;;;;24.58;22.98;;;;;;;;;;5051512;28;20256;-76
2023/12/05 11:26:16;;;;;;;24.08;22.55;;;;;;;;;;5054416;28;20261;-74
2023/12/05 11:28:56;;;;;;;24.40;22.80;;;;;;;;;;5055056;28;20287;-79
2023/12/05 11:31:28;;;;;;;25.33;23.73;;;;;;;;;;5057978;28;20212;-81
2023/12/05 11:34:11;;;;;;;24.27;22.55;;;;;;;;;;5056928;28;20200;-80
2023/12/05 11:36:42;;;;;;;24.40;22.80;;;;;;;;;;5057200;28;20301;-79
2023/12/05 11:39:11;;;;;;;23.27;21.77;;;;;;;;;;5056476;28;20200;-81
2023/12/05 11:41:39;;;;;;;26.30;24.52;;;;;;;;;;5059489;28;20550;-80
2023/12/05 11:44:19;;;;;;;23.85;22.25;;;;;;;;;;5070172;28;20204;-79
2023/12/05 11:46:47;;;;;;;22.70;21.37;;;;;;;;;;5067582;28;20223;-80
2023/12/05 11:49:27;;;;;;;22.63;21.23;;;;;;;;;;5059969;28;20552;-79
2023/12/05 11:51:54;;;;;;;24.60;23.00;;;;;;;;;;5070612;28;20203;-79
2023/12/05 11:54:24;;;;;;;23.77;22.27;;;;;;;;;;5075925;28;20207;-78
2023/12/05 11:57:10;;;;;;;23.67;22.27;;;;;;;;;;5077508;28;20231;-79
2023/12/05 11:59:39;;;;;;;22.90;21.50;;;;;;;;;;5067998;28;21430;-80
2023/12/05 12:02:06;;;;;;;22.83;21.43;;;;;;;;;;5059598;28;21068;-79
2023/12/05 12:04:33;;;;;;;25.20;23.50;;;;;;;;;;5059703;28;20454;-79
2023/12/05 12:07:01;;;;;;;24.23;22.63;;;;;;;;;;5052482;28;20235;-78
2023/12/05 12:09:28;;;;;;;22.83;21.53;;;;;;;;;;5054492;28;20184;-78
2023/12/05 12:11:57;;;;;;;24.97;23.37;;;;;;;;;;5054112;28;21064;-78
2023/12/05 12:14:25;;;;;;;31.33;28.83;;;;;;;;;;5054008;28;20458;-78
2023/12/05 12:16:52;;;;;;;29.80;27.77;;;;;;;;;;5054946;28;20544;-78
2023/12/05 12:19:19;;;;;;;23.83;22.13;;;;;;;;;;5054588;28;20454;-78
2023/12/05 12:21:46;;;;;;;23.90;22.40;;;;;;;;;;5054871;28;20444;-78
2023/12/05 12:24:19;;;;;;;25.43;23.90;;;;;;;;;;5055065;28;20424;-79
2023/12/05 12:26:52;;;;;;;23.53;22.03;;;;;;;;;;5055859;28;20462;-79
2023/12/05 12:29:22;;;;;;;22.15;20.90;;;;;;;;;;5055622;28;20435;-79
2023/12/05 12:31:50;;;;;;;23.15;21.67;;;;;;;;;;5055644;28;20263;-80
2023/12/05 12:34:24;;;;;;;23.10;21.70;;;;;;;;;;5055043;28;20695;-79
2023/12/05 12:36:52;;;;;;;30.10;27.73;;;;;;;;;;5055287;28;20462;-79
2023/12/05 12:39:20;;;;;;;22.87;21.47;;;;;;;;;;5056167;28;20442;-79
2023/12/05 12:41:47;;;;;;;21.80;20.60;;;;;;;;;;5055413;28;20447;-79
2023/12/05 12:44:14;;;;;;;23.13;21.80;;;;;;;;;;5055711;28;20657;-79
2023/12/05 12:46:43;;;;;;;21.40;20.20;;;;;;;;;;5054759;28;21013;-79
2023/12/05 12:49:10;;;;;;;21.10;19.90;;;;;;;;;;5054905;28;20453;-79
2023/12/05 12:51:38;;;;;;;20.87;19.77;;;;;;;;;;5054726;28;20725;-79
2023/12/05 12:54:06;;;;;;;20.92;19.48;;;;;;;;;;5054822;28;20549;-81
2023/12/05 12:56:33;;;;;;;22.50;21.10;;;;;;;;;;5056158;28;20224;-81
2023/12/05 12:59:01;;;;;;;21.08;19.90;;;;;;;;;;5055713;28;20477;-80
2023/12/05 13:01:29;;;;;;;21.35;19.98;;;;;;;;;;5056507;28;20203;-79
2023/12/05 13:03:58;;;;;;;22.30;21.00;;;;;;;;;;5063460;28;20211;-80
2023/12/05 13:06:25;;;;;;;20.57;19.47;;;;;;;;;;5072969;28;20676;-78
2023/12/05 13:08:52;;;;;;;20.98;19.80;;;;;;;;;;5065662;28;20865;-79
2023/12/05 13:11:19;;;;;;;20.50;19.30;;;;;;;;;;5068588;28;20220;-79
2023/12/05 13:13:47;;;;;;;19.58;18.58;;;;;;;;;;5080379;28;20217;-81
2023/12/05 13:16:15;;;;;;;20.58;19.48;;;;;;;;;;5083770;28;20204;-80
2023/12/05 13:18:44;;;;;;;21.33;19.83;;;;;;;;;;5085470;28;20204;-81
2023/12/05 13:21:13;;;;;;;20.43;19.33;;;;;;;;;;5083623;28;20214;-80
2023/12/05 13:23:41;;;;;;;19.77;18.58;;;;;;;;;;5069437;28;20450;-80
2023/12/05 13:26:08;;;;;;;20.30;19.20;;;;;;;;;;5078533;28;20219;-81
2023/12/05 13:28:35;;;;;;;19.83;18.63;;;;;;;;;;5083605;28;20454;-80
2023/12/05 13:31:02;;;;;;;20.00;18.83;;;;;;;;;;5072239;28;20478;-80
2023/12/05 13:33:29;;;;;;;19.98;18.85;;;;;;;;;;5064012;28;20210;-79
2023/12/05 13:35:57;;;;;;;26.30;23.90;;;;;;;;;;5062131;28;20196;-78
2023/12/05 13:38:26;;;;;;;23.00;21.10;;;;;;;;;;5080314;28;20233;-79
2023/12/05 13:40:53;;;;;;;21.60;20.40;;;;;;;;;;5075409;28;20441;-78
2023/12/05 13:43:19;;;;;;;21.17;19.97;;;;;;;;;;5077952;28;20192;-81
2023/12/05 13:45:46;;;;;;;20.83;19.42;;;;;;;;;;5061435;28;20970;-79
2023/12/05 13:48:14;;;;;;;21.08;19.88;;;;;;;;;;5058341;28;20228;-79
2023/12/05 13:50:41;;;;;;;20.53;19.43;;;;;;;;;;5052380;28;20227;-77
2023/12/05 13:53:08;;;;;;;21.30;20.10;;;;;;;;;;5051883;28;20455;-78
2023/12/05 13:55:36;;;;;;;20.40;19.15;;;;;;;;;;5051205;28;20424;-78
2023/12/05 13:58:03;;;;;;;19.25;18.15;;;;;;;;;;5051477;28;20219;-77
2023/12/05 14:00:30;;;;;;;20.05;18.90;;;;;;;;;;5051823;28;20208;-77
2023/12/05 14:02:57;;;;;;;20.35;19.25;;;;;;;;;;5051937;28;20979;-77
2023/12/05 14:05:24;;;;;;;20.53;19.33;;;;;;;;;;5050638;28;20617;-77
2023/12/05 14:07:51;;;;;;;20.67;19.15;;;;;;;;;;5051031;28;20489;-77
2023/12/05 14:10:18;;;;;;;20.73;19.63;;;;;;;;;;5061966;28;20262;-77
2023/12/05 14:12:47;;;;;;;19.80;18.70;;;;;;;;;;5071212;28;20412;-77
2023/12/05 14:15:14;;;;;;;20.38;19.27;;;;;;;;;;5071376;28;20214;-77
2023/12/05 14:17:40;;;;;;;20.33;19.23;;;;;;;;;;5070950;28;20223;-77
2023/12/05 14:20:10;;;;;;;20.00;18.90;;;;;;;;;;5071490;28;20212;-77
2023/12/05 14:22:37;;;;;;;19.10;18.10;;;;;;;;;;5071411;28;20839;-77
2023/12/05 14:25:06;;;;;;;19.83;18.73;;;;;;;;;;5070476;28;20936;-77
2023/12/05 14:27:33;;;;;;;20.10;18.90;;;;;;;;;;5071976;28;20222;-78
2023/12/05 14:30:03;;;;;;;20.63;19.33;;;;;;;;;;5069415;28;20218;-79
2023/12/05 14:32:30;;;;;;;20.85;19.67;;;;;;;;;;5056250;28;20235;-78
2023/12/05 14:34:57;;;;;;;20.20;19.00;;;;;;;;;;5054608;28;20719;-76
2023/12/05 14:37:24;;;;;;;19.60;18.60;;;;;;;;;;5057759;28;20227;-76
2023/12/05 14:39:51;;;;;;;20.23;19.13;;;;;;;;;;5054971;28;20443;-77
2023/12/05 14:42:18;;;;;;;26.58;24.17;;;;;;;;;;5051256;28;20211;-77
2023/12/05 14:44:45;;;;;;;21.60;20.20;;;;;;;;;;5056378;28;20227;-77
2023/12/05 14:47:14;;;;;;;21.70;20.20;;;;;;;;;;5050819;28;20220;-77
2023/12/05 14:49:41;;;;;;;19.57;18.53;;;;;;;;;;5051507;28;20690;-77
2023/12/05 14:52:08;;;;;;;19.58;18.40;;;;;;;;;;5049938;28;20490;-76
2023/12/05 14:54:35;;;;;;;22.60;21.00;;;;;;;;;;5048145;28;20645;-76
2023/12/05 14:57:02;;;;;;;27.38;25.17;;;;;;;;;;5049668;28;20224;-76
2023/12/05 14:59:29;;;;;;;30.95;28.33;;;;;;;;;;5050116;28;20622;-77
2023/12/05 15:01:56;;;;;;;23.80;21.90;;;;;;;;;;5050512;28;20207;-76
2023/12/05 15:04:25;;;;;;;19.15;17.95;;;;;;;;;;5057521;28;20500;-79